Change the Weather History Date:

Tuesday, April 15, 2014

  Actual Average Record
Temperature  
Mean Temperature 21 °F -  
Max Temperature 28 °F 45 °F 69 °F (1967)
Min Temperature 14 °F 32 °F 14 °F (2014)
Degree Days  
Heating Degree Days 44    
Moisture  
Dew Point 12 °F    
Average Humidity 67    
Maximum Humidity 86    
Minimum Humidity 43    
Precipitation  
Precipitation 0.01 in - - ()
Sea Level Pressure  
Sea Level Pressure 30.04 in    
Wind  
Wind Speed 7 mph (NW)    
Max Wind Speed 14 mph    
Max Gust Speed 18 mph    
Visibility 9 miles    
Events      
Averages and records for this station are not official NWS values.
T = Trace of Precipitation, MM = Missing Value Source: NWS Daily Summary

Daily Weather History Graph

Daily Weather History Graph

Search for Another Location

Airport or City:

Trip Planner

Search our weather history database for the weather conditions in past years. The results will help you decide how hot, cold, wet, or windy it might be!

Date:

Astronomy

Apr. 15, 2014 Rise Set
Actual Time 7:02 AM EDT 8:35 PM EDT
Civil Twilight 6:31 AM EDT 9:06 PM EDT
Nautical Twilight 5:53 AM EDT 9:44 PM EDT
Astronomical Twilight 5:13 AM EDT 10:24 PM EDT
Moon 9:17 PM EDT (4/15) 7:09 AM EDT (4/15)
Length of Visible Light 14h 34m
Length of Day
13h 32m
Full, 100% of the Moon is Illuminated
Apr 15
Full
Apr 22
Last Quarter
Apr 29
New
May 6
First Quarter
May 14
Full

Hourly Weather History & Observations

Time (EDT) Temp. Windchill Dew Point Humidity Pressure Visibility Wind Dir Wind Speed Gust Speed Precip Events Conditions
12:15 AM 19.4 °F 9.5 °F 10.4 °F 68% 29.95 in 10.0 mi NW 8.1 mph - N/A   Clear
12:35 AM 19.4 °F 10.4 °F 10.4 °F 68% 29.96 in 10.0 mi WNW 6.9 mph - N/A   Clear
12:55 AM 19.4 °F 10.4 °F 12.2 °F 74% 29.96 in 10.0 mi WNW 6.9 mph - N/A   Clear
1:15 AM 19.4 °F 10.4 °F 10.4 °F 68% 29.96 in 10.0 mi WNW 6.9 mph - N/A   Clear
1:35 AM 19.4 °F 10.4 °F 12.2 °F 74% 29.97 in 10.0 mi WNW 6.9 mph - N/A   Clear
1:55 AM 19.4 °F 10.4 °F 10.4 °F 68% 29.97 in 10.0 mi WNW 6.9 mph - N/A   Clear
2:15 AM 17.6 °F 7.3 °F 10.4 °F 73% 29.97 in 10.0 mi WNW 8.1 mph - N/A   Clear
2:35 AM 17.6 °F 8.2 °F 10.4 °F 73% 29.97 in 10.0 mi WNW 6.9 mph - N/A   Clear
2:55 AM 17.6 °F 6.4 °F 10.4 °F 73% 29.97 in 10.0 mi WNW 9.2 mph - N/A   Clear
3:15 AM 17.6 °F 7.3 °F 10.4 °F 73% 29.96 in 10.0 mi WNW 8.1 mph - N/A   Clear
3:35 AM 17.6 °F 8.2 °F 10.4 °F 73% 29.96 in 10.0 mi WNW 6.9 mph - N/A   Clear
3:55 AM 17.6 °F 7.3 °F 8.6 °F 68% 29.97 in 10.0 mi WNW 8.1 mph - N/A   Clear
4:15 AM 15.8 °F 6.1 °F 8.6 °F 73% 29.97 in 10.0 mi WNW 6.9 mph - N/A   Clear
4:35 AM 15.8 °F 6.1 °F 8.6 °F 73% 29.97 in 10.0 mi WNW 6.9 mph - N/A   Clear
4:55 AM 15.8 °F 5.1 °F 8.6 °F 73% 29.97 in 10.0 mi WNW 8.1 mph - N/A   Clear
5:15 AM 15.8 °F 4.2 °F 8.6 °F 73% 29.97 in 10.0 mi WNW 9.2 mph - N/A   Clear
5:35 AM 15.8 °F 4.2 °F 8.6 °F 73% 29.97 in 10.0 mi WNW 9.2 mph - N/A   Clear
5:55 AM 15.8 °F 3.4 °F 6.8 °F 68% 29.97 in 10.0 mi WNW 10.4 mph - N/A   Clear
6:15 AM 15.8 °F 5.1 °F 6.8 °F 68% 29.98 in 10.0 mi NW 8.1 mph - N/A   Clear
6:35 AM 15.8 °F 6.1 °F 6.8 °F 68% 29.99 in 10.0 mi WNW 6.9 mph - N/A   Clear
6:55 AM 15.8 °F 6.1 °F 6.8 °F 68% 30.00 in 10.0 mi WNW 6.9 mph - N/A   Clear
7:15 AM 14.0 °F 3.9 °F 6.8 °F 73% 30.00 in 10.0 mi WNW 6.9 mph - N/A   Clear
7:35 AM 15.8 °F 6.1 °F 8.6 °F 73% 30.01 in 10.0 mi WNW 6.9 mph - N/A   Clear
7:55 AM 15.8 °F 6.1 °F 6.8 °F 68% 30.02 in 10.0 mi WNW 6.9 mph - N/A   Clear
8:15 AM 15.8 °F 5.1 °F 8.6 °F 73% 30.02 in 10.0 mi NW 8.1 mph - N/A   Clear
8:35 AM 17.6 °F 9.3 °F 8.6 °F 68% 30.03 in 10.0 mi NW 5.8 mph - N/A   Clear
8:55 AM 19.4 °F 10.4 °F 10.4 °F 68% 30.03 in 10.0 mi NW 6.9 mph - N/A   Clear
9:15 AM 19.4 °F 11.5 °F 8.6 °F 63% 30.03 in 10.0 mi NNW 5.8 mph - N/A   Clear
9:35 AM 21.2 °F 12.6 °F 8.6 °F 58% 30.04 in 10.0 mi NNW 6.9 mph - N/A   Clear
9:55 AM 21.2 °F 13.6 °F 8.6 °F 58% 30.04 in 10.0 mi North 5.8 mph - N/A   Clear
10:15 AM 21.2 °F 10.1 °F 8.6 °F 58% 30.04 in 10.0 mi North 10.4 mph 16.1 mph N/A   Clear
10:35 AM 23.0 °F 13.1 °F 6.8 °F 50% 30.04 in 10.0 mi NNW 9.2 mph - N/A   Partly Cloudy
10:55 AM 24.8 °F 15.3 °F 8.6 °F 50% 30.04 in 10.0 mi NNW 9.2 mph 16.1 mph N/A   Scattered Clouds
11:15 AM 24.8 °F 14.6 °F 8.6 °F 50% 30.04 in 10.0 mi NNW 10.4 mph 16.1 mph N/A   Mostly Cloudy
11:35 AM 24.8 °F 15.3 °F 6.8 °F 46% 30.04 in 10.0 mi NW 9.2 mph - N/A   Overcast
11:55 AM 24.8 °F 15.3 °F 8.6 °F 50% 30.04 in 10.0 mi West 9.2 mph - N/A   Overcast
12:15 PM 24.8 °F 14.0 °F 10.4 °F 54% 30.04 in 7.0 mi NW 11.5 mph 16.1 mph N/A   Overcast
12:55 PM 24.8 °F 15.3 °F 8.6 °F 50% 30.04 in 8.0 mi NNW 9.2 mph 17.3 mph N/A   Overcast
1:15 PM 24.8 °F - 10.4 °F 54% 30.04 in 10.0 mi Calm Calm - N/A   Overcast
1:55 PM 26.6 °F 20.0 °F 15.8 °F 64% 30.03 in 8.0 mi North 5.8 mph - N/A   Overcast
2:15 PM 26.6 °F 18.2 °F 12.2 °F 55% 30.03 in 10.0 mi West 8.1 mph - N/A   Overcast
2:35 PM 28.4 °F 17.5 °F 8.6 °F 43% 30.03 in 10.0 mi WSW 13.8 mph - N/A   Overcast
2:55 PM 26.6 °F 15.7 °F 10.4 °F 51% 30.03 in 9.0 mi NW 12.7 mph 18.4 mph N/A   Overcast
3:15 PM 26.6 °F 19.1 °F 12.2 °F 55% 30.04 in 10.0 mi WNW 6.9 mph - N/A   Scattered Clouds
3:35 PM 28.4 °F 18.0 °F 10.4 °F 47% 30.04 in 7.0 mi WNW 12.7 mph 17.3 mph N/A   Mostly Cloudy
3:55 PM 26.6 °F 20.0 °F 15.8 °F 64% 30.04 in 1.2 mi West 5.8 mph - N/A   Overcast
4:15 PM 28.4 °F - 17.6 °F 64% 30.03 in 10.0 mi Calm Calm - N/A   Mostly Cloudy
4:35 PM 28.4 °F 19.7 °F 14.0 °F 55% 30.04 in 10.0 mi SSE 9.2 mph - N/A   Mostly Cloudy
4:55 PM 26.6 °F 20.0 °F 17.6 °F 69% 30.03 in 10.0 mi SW 5.8 mph - N/A   Overcast
5:15 PM 28.4 °F 19.7 °F 15.8 °F 59% 30.04 in 9.0 mi NW 9.2 mph - N/A   Mostly Cloudy
5:35 PM 26.6 °F 19.1 °F 17.6 °F 69% 30.05 in 0.8 mi NE 6.9 mph - N/A   Overcast
5:55 PM 26.6 °F 19.1 °F 21.2 °F 80% 30.05 in 1.2 mi East 6.9 mph - N/A   Overcast
6:15 PM 26.6 °F 20.0 °F 21.2 °F 80% 30.05 in 10.0 mi ESE 5.8 mph - N/A   Mostly Cloudy
6:35 PM 26.6 °F 17.5 °F 19.4 °F 74% 30.06 in 10.0 mi NE 9.2 mph - N/A   Mostly Cloudy
6:55 PM 26.6 °F 19.1 °F 19.4 °F 74% 30.07 in 10.0 mi ENE 6.9 mph - N/A   Mostly Cloudy
7:15 PM 26.6 °F 21.2 °F 19.4 °F 74% 30.07 in 10.0 mi ENE 4.6 mph - N/A   Overcast
7:35 PM 26.6 °F 21.2 °F 19.4 °F 74% 30.08 in 10.0 mi East 4.6 mph - N/A   Overcast
7:55 PM 24.8 °F - 19.4 °F 80% 30.08 in 0.8 mi Calm Calm - N/A   Overcast
8:15 PM 24.8 °F 20.5 °F 19.4 °F 80% 30.09 in 2.0 mi East 3.5 mph - N/A   Overcast
8:35 PM 23.0 °F - 19.4 °F 86% 30.10 in 10.0 mi Calm Calm - N/A   Partly Cloudy
8:55 PM 23.0 °F - 19.4 °F 86% 30.11 in 8.0 mi Calm Calm - N/A   Mostly Cloudy
9:15 PM 23.0 °F 18.4 °F 19.4 °F 86% 30.12 in 5.0 mi ENE 3.5 mph - N/A   Overcast
9:35 PM 23.0 °F 17.0 °F 17.6 °F 80% 30.13 in 10.0 mi NE 4.6 mph - 0.01 in   Scattered Clouds
9:55 PM 23.0 °F 17.0 °F 17.6 °F 80% 30.14 in 10.0 mi NE 4.6 mph - 0.01 in   Clear
10:15 PM 23.0 °F 17.0 °F 15.8 °F 74% 30.15 in 10.0 mi NNE 4.6 mph - N/A   Clear
10:35 PM 21.2 °F 16.4 °F 15.8 °F 80% 30.15 in 10.0 mi NNE 3.5 mph - N/A   Partly Cloudy
10:55 PM 21.2 °F 14.9 °F 12.2 °F 68% 30.16 in 10.0 mi NE 4.6 mph - N/A   Clear
11:15 PM 21.2 °F 14.9 °F 12.2 °F 68% 30.17 in 10.0 mi NNE 4.6 mph - N/A   Clear
11:35 PM 19.4 °F 14.3 °F 12.2 °F 74% 30.18 in 10.0 mi NE 3.5 mph - N/A   Clear
11:55 PM 19.4 °F 14.3 °F 12.2 °F 74% 30.18 in 10.0 mi NE 3.5 mph - N/A   Clear